Terminal Aerodrome Forecast
Issued by NWS

Home | Current Version | Previous Version | Text Only | Print | Product List | Glossary On
Versions: 1 2 3 4 5 6 7 8 9 10 11 12 13 14 15
000
FTUS43 KLSX 291700
TAFUIN
TAF
KUIN 291736Z 2918/3018 23015G25KT P6SM VCSH BKN090
     FM292000 26014G22KT P6SM VCSH SCT050 BKN100
     FM300000 30009KT P6SM SKC
     FM301100 24005KT P6SM SKC=

USA.gov is the U.S. government's official web portal to all federal, state and local government web resources and services.